Time;durP1;ratioP1;P1;durP2;ratioP2;P2;SDS_P1;SDS_P2;PMS_P1;PMS_P2;Temp;Humidity;BMP_temperature;BMP_pressure;BME280_temperature;BME280_humidity;BME280_pressure;Samples;Min_cycle;Max_cycle;Signal;HPM_P1;HPM_P2
2022/05/23 00:01:46;;;;;;;;;;;;;;;;;;5052798;28;20394;-57
2022/05/23 00:04:13;;;;;;;;;;;;;;;;;;5049841;28;19913;-51
2022/05/23 00:06:39;;;;;;;;;;;;;;;;;;5051158;28;19969;-51
2022/05/23 00:09:06;;;;;;;;;;;;;;;;;;5049063;28;20260;-53
2022/05/23 00:11:32;;;;;;;;;;;;;;;;;;5049019;28;19916;-55
2022/05/23 00:13:59;;;;;;;;;;;;;;;;;;5049063;28;19951;-46
2022/05/23 00:16:25;;;;;;;;;;;;;;;;;;5049722;28;20359;-52
2022/05/23 00:18:52;;;;;;;;;;;;;;;;;;5046348;28;20299;-48
2022/05/23 00:21:18;;;;;;;;;;;;;;;;;;5049458;28;19939;-49
2022/05/23 00:23:45;;;;;;;;;;;;;;;;;;5049069;28;20284;-50
2022/05/23 00:26:11;;;;;;;;;;;;;;;;;;5049439;28;19974;-46
2022/05/23 00:28:38;;;;;;;;;;;;;;;;;;5046532;28;19909;-50
2022/05/23 00:31:04;;;;;;;;;;;;;;;;;;5049184;28;19939;-50
2022/05/23 00:36:15;;;;;;;;;;;;;;;;;;5049914;28;19916;-45
2022/05/23 00:38:42;;;;;;;;;;;;;;;;;;5051284;28;19915;-43
2022/05/23 00:43:53;;;;;;;;;;;;;;;;;;5052111;28;20030;-56
2022/05/23 00:46:19;;;;;;;;;;;;;;;;;;5051913;28;19909;-55
2022/05/23 00:48:46;;;;;;;;;;;;;;;;;;5048769;28;19978;-56
2022/05/23 00:51:12;;;;;;;;;;;;;;;;;;5047711;28;19921;-49
2022/05/23 00:53:39;;;;;;;;;;;;;;;;;;5048615;28;19916;-53
2022/05/23 00:56:05;;;;;;;;;;;;;;;;;;5048990;28;19909;-52
2022/05/23 00:58:32;;;;;;;;;;;;;;;;;;5048913;28;19924;-52
2022/05/23 01:00:58;;;;;;;;;;;;;;;;;;5048884;28;19999;-53
2022/05/23 01:03:25;;;;;;;;;;;;;;;;;;5046021;28;20327;-54
2022/05/23 01:05:54;;;;;;;;;;;;;;;;;;5050572;28;19916;-48
2022/05/23 01:08:21;;;;;;;;;;;;;;;;;;5048807;28;19909;-54
2022/05/23 01:10:47;;;;;;;;;;;;;;;;;;5049481;28;19991;-49
2022/05/23 01:13:14;;;;;;;;;;;;;;;;;;5050453;28;20263;-53
2022/05/23 01:15:40;;;;;;;;;;;;;;;;;;5052590;28;19909;-51
2022/05/23 01:18:07;;;;;;;;;;;;;;;;;;5052382;28;19920;-48
2022/05/23 01:20:34;;;;;;;;;;;;;;;;;;5052809;28;19913;-53
2022/05/23 01:23:00;;;;;;;;;;;;;;;;;;5049370;28;19917;-53
2022/05/23 01:25:27;;;;;;;;;;;;;;;;;;5053345;28;20279;-46
2022/05/23 01:27:53;;;;;;;;;;;;;;;;;;5051472;28;19916;-50
2022/05/23 01:30:20;;;;;;;;;;;;;;;;;;5053680;28;19963;-53
2022/05/23 01:32:46;;;;;;;;;;;;;;;;;;5054343;28;19915;-50
2022/05/23 01:35:13;;;;;;;;;;;;;;;;;;5054448;28;19913;-54
2022/05/23 01:37:39;;;;;;;;;;;;;;;;;;5053740;28;19909;-52
2022/05/23 01:40:06;;;;;;;;;;;;;;;;;;5054566;28;19950;-54
2022/05/23 01:42:32;;;;;;;;;;;;;;;;;;5054925;28;19952;-54
2022/05/23 01:44:59;;;;;;;;;;;;;;;;;;5054812;28;20004;-46
2022/05/23 01:47:25;;;;;;;;;;;;;;;;;;5055242;28;19947;-46
2022/05/23 01:49:52;;;;;;;;;;;;;;;;;;5054888;28;19920;-53
2022/05/23 01:52:18;;;;;;;;;;;;;;;;;;5054908;28;20344;-47
2022/05/23 01:54:45;;;;;;;;;;;;;;;;;;5053947;28;20297;-49
2022/05/23 01:57:11;;;;;;;;;;;;;;;;;;5054667;28;19948;-53
2022/05/23 02:02:23;;;;;;;;;;;;;;;;;;5055131;28;19915;-54
2022/05/23 02:04:49;;;;;;;;;;;;;;;;;;5051727;28;19923;-53
2022/05/23 02:07:16;;;;;;;;;;;;;;;;;;5050282;28;19916;-47
2022/05/23 02:09:42;;;;;;;;;;;;;;;;;;5051684;28;20001;-47
2022/05/23 02:12:08;;;;;;;;;;;;;;;;;;5053026;28;20374;-51
2022/05/23 02:14:35;;;;;;;;;;;;;;;;;;5051553;28;19917;-45
2022/05/23 02:17:01;;;;;;;;;;;;;;;;;;5048567;28;19954;-50
2022/05/23 02:19:29;;;;;;;;;;;;;;;;;;5051437;28;19991;-50
2022/05/23 02:21:55;;;;;;;;;;;;;;;;;;5051014;28;20375;-54
2022/05/23 02:24:22;;;;;;;;;;;;;;;;;;5052600;28;19909;-50
2022/05/23 02:26:48;;;;;;;;;;;;;;;;;;5049268;28;19966;-54
2022/05/23 02:29:15;;;;;;;;;;;;;;;;;;5051692;28;19909;-43
2022/05/23 02:31:41;;;;;;;;;;;;;;;;;;5051994;28;19923;-44
2022/05/23 02:34:10;;;;;;;;;;;;;;;;;;5051009;28;19908;-47
2022/05/23 02:36:36;;;;;;;;;;;;;;;;;;5053102;28;20027;-52
2022/05/23 02:39:02;;;;;;;;;;;;;;;;;;5053150;28;19913;-51
2022/05/23 02:41:29;;;;;;;;;;;;;;;;;;5052786;28;20016;-41
2022/05/23 02:43:59;;;;;;;;;;;;;;;;;;5053821;28;19913;-46
2022/05/23 02:46:25;;;;;;;;;;;;;;;;;;5054356;28;19962;-49
2022/05/23 02:48:52;;;;;;;;;;;;;;;;;;5052769;28;19953;-51
2022/05/23 02:51:18;;;;;;;;;;;;;;;;;;5052549;28;20227;-48
2022/05/23 02:53:45;;;;;;;;;;;;;;;;;;5051390;28;20334;-53
2022/05/23 02:56:11;;;;;;;;;;;;;;;;;;5053524;28;20309;-53
2022/05/23 02:58:37;;;;;;;;;;;;;;;;;;5053060;28;19909;-53
2022/05/23 03:01:04;;;;;;;;;;;;;;;;;;5053141;28;19909;-53
2022/05/23 03:03:32;;;;;;;;;;;;;;;;;;5052178;28;19944;-51
2022/05/23 03:05:58;;;;;;;;;;;;;;;;;;5053039;28;19916;-45
2022/05/23 03:08:25;;;;;;;;;;;;;;;;;;5053927;28;19909;-53
2022/05/23 03:10:51;;;;;;;;;;;;;;;;;;5053017;28;19944;-49
2022/05/23 03:13:18;;;;;;;;;;;;;;;;;;5053356;28;20007;-50
2022/05/23 03:15:44;;;;;;;;;;;;;;;;;;5053051;28;19909;-50
2022/05/23 03:18:11;;;;;;;;;;;;;;;;;;5052669;28;19909;-49
2022/05/23 03:20:37;;;;;;;;;;;;;;;;;;5053464;28;19909;-51
2022/05/23 03:28:33;;;;;;;;;;;;;;;;;;5053360;28;20295;-46
2022/05/23 03:31:00;;;;;;;;;;;;;;;;;;5053674;28;20327;-49
2022/05/23 03:33:27;;;;;;;;;;;;;;;;;;5052605;28;19908;-53
2022/05/23 03:35:53;;;;;;;;;;;;;;;;;;5053091;28;20011;-54
2022/05/23 03:38:21;;;;;;;;;;;;;;;;;;5053292;28;19912;-50
2022/05/23 03:40:48;;;;;;;;;;;;;;;;;;5053068;28;19967;-43
2022/05/23 03:43:14;;;;;;;;;;;;;;;;;;5053011;28;19953;-50
2022/05/23 03:45:41;;;;;;;;;;;;;;;;;;5052544;28;19916;-49
2022/05/23 03:48:07;;;;;;;;;;;;;;;;;;5052622;28;19924;-44
2022/05/23 03:50:33;;;;;;;;;;;;;;;;;;5052325;28;19967;-44
2022/05/23 03:53:00;;;;;;;;;;;;;;;;;;5052736;28;19909;-53
2022/05/23 03:55:26;;;;;;;;;;;;;;;;;;5052209;28;20007;-43
2022/05/23 03:57:53;;;;;;;;;;;;;;;;;;5052779;28;19916;-49
2022/05/23 04:00:19;;;;;;;;;;;;;;;;;;5052395;28;20431;-49
2022/05/23 04:02:46;;;;;;;;;;;;;;;;;;5052239;28;20275;-53
2022/05/23 04:05:12;;;;;;;;;;;;;;;;;;5052224;28;19909;-53
2022/05/23 04:07:39;;;;;;;;;;;;;;;;;;5052755;28;19909;-47
2022/05/23 04:10:05;;;;;;;;;;;;;;;;;;5052715;28;19924;-48
2022/05/23 04:12:32;;;;;;;;;;;;;;;;;;5051769;28;19916;-45
2022/05/23 04:14:58;;;;;;;;;;;;;;;;;;5052037;28;19913;-51
2022/05/23 04:17:25;;;;;;;;;;;;;;;;;;5052069;28;19916;-50
2022/05/23 04:19:51;;;;;;;;;;;;;;;;;;5052316;28;19909;-50
2022/05/23 04:22:18;;;;;;;;;;;;;;;;;;5052194;28;19917;-53
2022/05/23 04:24:44;;;;;;;;;;;;;;;;;;5051867;28;19909;-47
2022/05/23 04:27:11;;;;;;;;;;;;;;;;;;5051953;28;20271;-52
2022/05/23 04:29:37;;;;;;;;;;;;;;;;;;5052027;28;20004;-51
2022/05/23 04:35:12;;;;;;;;;;;;;;;;;;5052196;28;19917;-46
2022/05/23 04:37:35;;;;;;;;;;;;;;;;;;5052113;28;19916;-48
2022/05/23 04:40:01;;;;;;;;;;;;;;;;;;5052312;28;20382;-48
2022/05/23 04:42:28;;;;;;;;;;;;;;;;;;5051896;28;20326;-47
2022/05/23 04:44:54;;;;;;;;;;;;;;;;;;5051950;28;19905;-46
2022/05/23 04:50:05;;;;;;;;;;;;;;;;;;5052057;28;20286;-49
2022/05/23 04:52:32;;;;;;;;;;;;;;;;;;5051218;28;20056;-52
2022/05/23 04:54:58;;;;;;;;;;;;;;;;;;5051642;28;19918;-53
2022/05/23 04:57:25;;;;;;;;;;;;;;;;;;5051967;28;19916;-53
2022/05/23 04:59:51;;;;;;;;;;;;;;;;;;5052092;28;19909;-47
2022/05/23 05:02:18;;;;;;;;;;;;;;;;;;5051862;28;20267;-49
2022/05/23 05:04:44;;;;;;;;;;;;;;;;;;5051808;28;20268;-44
2022/05/23 05:07:11;;;;;;;;;;;;;;;;;;5051471;28;19909;-51
2022/05/23 05:09:37;;;;;;;;;;;;;;;;;;5051292;28;19913;-50
2022/05/23 05:12:04;;;;;;;;;;;;;;;;;;5051326;28;20084;-51
2022/05/23 05:14:30;;;;;;;;;;;;;;;;;;5051399;28;19921;-53
2022/05/23 05:16:57;;;;;;;;;;;;;;;;;;5045968;28;19920;-45
2022/05/23 05:19:23;;;;;;;;;;;;;;;;;;5047321;28;20316;-50
2022/05/23 05:21:50;;;;;;;;;;;;;;;;;;5048857;28;19922;-51
2022/05/23 05:24:17;;;;;;;;;;;;;;;;;;5049049;28;20009;-44
2022/05/23 05:26:44;;;;;;;;;;;;;;;;;;5046381;28;19913;-58
2022/05/23 05:29:10;;;;;;;;;;;;;;;;;;5049856;28;19916;-43
2022/05/23 05:31:37;;;;;;;;;;;;;;;;;;5050744;28;19971;-51
2022/05/23 05:34:03;;;;;;;;;;;;;;;;;;5049744;28;19919;-50
2022/05/23 05:36:30;;;;;;;;;;;;;;;;;;5051050;28;19936;-42
2022/05/23 05:38:57;;;;;;;;;;;;;;;;;;5050929;28;19936;-51
2022/05/23 05:41:23;;;;;;;;;;;;;;;;;;5051084;28;19989;-46
2022/05/23 05:43:50;;;;;;;;;;;;;;;;;;5051257;28;19908;-49
2022/05/23 05:46:16;;;;;;;;;;;;;;;;;;5051428;28;19920;-46
2022/05/23 05:48:43;;;;;;;;;;;;;;;;;;5050780;28;19954;-52
2022/05/23 05:51:09;;;;;;;;;;;;;;;;;;5046496;28;20387;-51
2022/05/23 05:53:35;;;;;;;;;;;;;;;;;;5048286;28;20429;-54
2022/05/23 05:56:02;;;;;;;;;;;;;;;;;;5051500;28;20382;-51
2022/05/23 05:58:29;;;;;;;;;;;;;;;;;;5050844;28;19966;-53
2022/05/23 06:00:55;;;;;;;;;;;;;;;;;;5051977;28;19916;-53
2022/05/23 06:03:21;;;;;;;;;;;;;;;;;;5051438;28;20302;-53
2022/05/23 06:11:24;;;;;;;;;;;;;;;;;;5050340;28;20023;-51
2022/05/23 06:13:50;;;;;;;;;;;;;;;;;;5051308;28;20015;-45
2022/05/23 06:16:18;;;;;;;;;;;;;;;;;;5051849;28;19909;-50
2022/05/23 06:18:45;;;;;;;;;;;;;;;;;;5049075;28;19913;-39
2022/05/23 06:21:12;;;;;;;;;;;;;;;;;;5052056;28;19916;-52
2022/05/23 06:23:39;;;;;;;;;;;;;;;;;;5050915;28;20020;-39
2022/05/23 06:26:05;;;;;;;;;;;;;;;;;;5052321;28;19916;-53
2022/05/23 06:28:32;;;;;;;;;;;;;;;;;;5047889;28;20011;-47
2022/05/23 06:30:59;;;;;;;;;;;;;;;;;;5051295;28;19917;-52
2022/05/23 06:33:26;;;;;;;;;;;;;;;;;;5050604;28;19955;-49
2022/05/23 06:35:52;;;;;;;;;;;;;;;;;;5050040;28;20363;-42
2022/05/23 06:38:19;;;;;;;;;;;;;;;;;;5049044;28;20371;-53
2022/05/23 06:40:45;;;;;;;;;;;;;;;;;;5051510;28;20390;-44
2022/05/23 06:43:12;;;;;;;;;;;;;;;;;;5050988;28;20426;-56
2022/05/23 06:45:38;;;;;;;;;;;;;;;;;;5051453;28;20382;-47
2022/05/23 06:48:05;;;;;;;;;;;;;;;;;;5048242;28;20249;-50
2022/05/23 06:50:31;;;;;;;;;;;;;;;;;;5050275;28;19920;-56
2022/05/23 06:52:57;;;;;;;;;;;;;;;;;;5051660;28;19969;-52
2022/05/23 06:55:24;;;;;;;;;;;;;;;;;;5051056;28;19962;-55
2022/05/23 06:57:50;;;;;;;;;;;;;;;;;;5048119;28;19927;-45
2022/05/23 07:00:18;;;;;;;;;;;;;;;;;;5049494;28;19916;-54
2022/05/23 07:02:45;;;;;;;;;;;;;;;;;;5050825;28;19970;-48
2022/05/23 07:13:26;;;;;;;;;;;;;;;;;;5052468;28;19931;-56
2022/05/23 07:15:52;;;;;;;;;;;;;;;;;;5053318;28;19913;-52
2022/05/23 07:18:19;;;;;;;;;;;;;;;;;;5053216;28;20343;-48
2022/05/23 07:20:46;;;;;;;;;;;;;;;;;;5052590;28;19963;-47
2022/05/23 07:23:13;;;;;;;;;;;;;;;;;;5053060;28;19995;-49
2022/05/23 07:25:40;;;;;;;;;;;;;;;;;;5048851;28;19943;-49
2022/05/23 07:28:06;;;;;;;;;;;;;;;;;;5049517;28;20003;-54
2022/05/23 07:30:33;;;;;;;;;;;;;;;;;;5049863;28;19985;-55
2022/05/23 07:32:59;;;;;;;;;;;;;;;;;;5049512;28;19927;-51
2022/05/23 07:35:26;;;;;;;;;;;;;;;;;;5049674;28;19962;-50
2022/05/23 07:37:53;;;;;;;;;;;;;;;;;;5047903;28;19916;-55
2022/05/23 07:40:20;;;;;;;;;;;;;;;;;;5049926;28;19931;-49
2022/05/23 07:42:47;;;;;;;;;;;;;;;;;;5048181;28;19920;-51
2022/05/23 07:45:14;;;;;;;;;;;;;;;;;;5047303;28;19917;-55
2022/05/23 07:47:40;;;;;;;;;;;;;;;;;;5048546;28;19916;-52
2022/05/23 07:50:06;;;;;;;;;;;;;;;;;;5051130;28;20358;-48
2022/05/23 07:52:33;;;;;;;;;;;;;;;;;;5049722;28;20275;-57
2022/05/23 08:00:35;;;;;;;;;;;;;;;;;;5050975;28;20026;-50
2022/05/23 08:03:01;;;;;;;;;;;;;;;;;;5052274;28;19909;-53
2022/05/23 08:05:28;;;;;;;;;;;;;;;;;;5051955;28;19909;-48
2022/05/23 08:07:54;;;;;;;;;;;;;;;;;;5052318;28;19916;-58
2022/05/23 08:10:20;;;;;;;;;;;;;;;;;;5052115;28;20013;-55
2022/05/23 08:12:47;;;;;;;;;;;;;;;;;;5051988;28;19920;-52
2022/05/23 08:15:13;;;;;;;;;;;;;;;;;;5052226;28;19908;-51
2022/05/23 08:17:40;;;;;;;;;;;;;;;;;;5052846;28;20041;-50
2022/05/23 08:20:06;;;;;;;;;;;;;;;;;;5052064;28;19912;-56
2022/05/23 08:22:33;;;;;;;;;;;;;;;;;;5051495;28;20039;-52
2022/05/23 08:24:59;;;;;;;;;;;;;;;;;;5051555;28;19905;-51
2022/05/23 08:27:26;;;;;;;;;;;;;;;;;;5052157;28;19909;-52
2022/05/23 08:29:53;;;;;;;;;;;;;;;;;;5051683;28;19916;-52
2022/05/23 08:32:20;;;;;;;;;;;;;;;;;;5051457;28;19959;-55
2022/05/23 08:34:50;;;;;;;;;;;;;;;;;;5051563;28;19909;-55
2022/05/23 08:37:16;;;;;;;;;;;;;;;;;;5051424;28;20280;-47
2022/05/23 08:39:43;;;;;;;;;;;;;;;;;;5051292;28;19989;-55
2022/05/23 08:42:09;;;;;;;;;;;;;;;;;;5051675;28;19952;-51
2022/05/23 08:44:36;;;;;;;;;;;;;;;;;;5051764;28;19954;-54
2022/05/23 08:47:03;;;;;;;;;;;;;;;;;;5048450;28;19932;-56
2022/05/23 08:49:29;;;;;;;;;;;;;;;;;;5058875;28;20220;-53
2022/05/23 08:51:56;;;;;;;;;;;;;;;;;;5049068;28;19924;-49
2022/05/23 08:54:22;;;;;;;;;;;;;;;;;;5044992;28;20473;-54
2022/05/23 08:56:49;;;;;;;;;;;;;;;;;;5046907;28;20221;-49
2022/05/23 08:59:15;;;;;;;;;;;;;;;;;;5050180;28;20320;-51
2022/05/23 09:01:42;;;;;;;;;;;;;;;;;;5048766;28;19916;-43
2022/05/23 09:04:09;;;;;;;;;;;;;;;;;;5051165;28;19948;-44
2022/05/23 09:06:37;;;;;;;;;;;;;;;;;;5049544;28;19909;-47
2022/05/23 09:09:04;;;;;;;;;;;;;;;;;;5051877;28;19909;-48
2022/05/23 09:11:30;;;;;;;;;;;;;;;;;;5049896;28;19920;-52
2022/05/23 09:13:57;;;;;;;;;;;;;;;;;;5049427;28;19928;-46
2022/05/23 09:16:23;;;;;;;;;;;;;;;;;;5048200;28;19967;-49
2022/05/23 09:18:50;;;;;;;;;;;;;;;;;;5049468;28;20244;-49
2022/05/23 09:21:16;;;;;;;;;;;;;;;;;;5049722;28;19909;-46
2022/05/23 09:23:43;;;;;;;;;;;;;;;;;;5050016;28;19909;-50
2022/05/23 09:26:11;;;;;;;;;;;;;;;;;;5050116;28;19917;-43
2022/05/23 09:28:38;;;;;;;;;;;;;;;;;;5051072;28;19909;-50
2022/05/23 09:31:04;;;;;;;;;;;;;;;;;;5051029;28;19917;-44
2022/05/23 09:33:31;;;;;;;;;;;;;;;;;;5055025;28;19925;-51
2022/05/23 09:35:57;;;;;;;;;;;;;;;;;;5055133;28;19962;-52
2022/05/23 09:38:25;;;;;;;;;;;;;;;;;;5055612;28;20401;-50
2022/05/23 09:40:52;;;;;;;;;;;;;;;;;;5055037;28;19913;-48
2022/05/23 09:48:47;;;;;;;;;;;;;;;;;;5055138;28;19970;-52
2022/05/23 09:51:14;;;;;;;;;;;;;;;;;;5055218;28;19982;-51
2022/05/23 09:53:42;;;;;;;;;;;;;;;;;;5055273;28;19915;-47
2022/05/23 09:56:09;;;;;;;;;;;;;;;;;;5054816;28;19909;-52
2022/05/23 09:58:35;;;;;;;;;;;;;;;;;;5054786;28;19915;-44
2022/05/23 10:01:02;;;;;;;;;;;;;;;;;;5055045;28;19995;-49
2022/05/23 10:03:29;;;;;;;;;;;;;;;;;;5055043;28;19957;-52
2022/05/23 10:05:55;;;;;;;;;;;;;;;;;;5055483;28;19916;-47
2022/05/23 10:08:22;;;;;;;;;;;;;;;;;;5054990;28;19916;-49
2022/05/23 10:10:48;;;;;;;;;;;;;;;;;;5054998;28;19962;-46
2022/05/23 10:13:15;;;;;;;;;;;;;;;;;;5054402;28;19921;-53
2022/05/23 10:15:41;;;;;;;;;;;;;;;;;;5054547;28;20348;-53
2022/05/23 10:18:07;;;;;;;;;;;;;;;;;;5054686;28;20279;-53
2022/05/23 10:20:34;;;;;;;;;;;;;;;;;;5054562;28;19978;-51
2022/05/23 10:23:01;;;;;;;;;;;;;;;;;;5054809;28;19915;-52
2022/05/23 10:25:27;;;;;;;;;;;;;;;;;;5054570;28;19915;-53
2022/05/23 10:27:53;;;;;;;;;;;;;;;;;;5054193;28;19919;-53
2022/05/23 10:30:20;;;;;;;;;;;;;;;;;;5054539;28;19924;-50
2022/05/23 10:32:50;;;;;;;;;;;;;;;;;;5054634;28;19909;-52
2022/05/23 10:35:16;;;;;;;;;;;;;;;;;;5054886;28;19962;-49
2022/05/23 10:37:44;;;;;;;;;;;;;;;;;;5053597;28;19909;-56
2022/05/23 10:42:56;;;;;;;;;;;;;;;;;;5052360;28;19927;-54
2022/05/23 10:45:22;;;;;;;;;;;;;;;;;;5051266;28;20040;-51
2022/05/23 10:47:49;;;;;;;;;;;;;;;;;;5054022;28;19923;-46
2022/05/23 10:50:15;;;;;;;;;;;;;;;;;;5051346;28;19916;-52
2022/05/23 10:52:42;;;;;;;;;;;;;;;;;;5048831;28;19966;-56
2022/05/23 10:55:09;;;;;;;;;;;;;;;;;;5051943;28;19920;-51
2022/05/23 10:57:35;;;;;;;;;;;;;;;;;;5051091;28;19996;-49
2022/05/23 11:00:03;;;;;;;;;;;;;;;;;;5051949;28;19909;-52
2022/05/23 11:02:29;;;;;;;;;;;;;;;;;;5049252;28;19917;-56
2022/05/23 11:04:56;;;;;;;;;;;;;;;;;;5051451;28;19912;-49
2022/05/23 11:07:22;;;;;;;;;;;;;;;;;;5050895;28;19913;-39
2022/05/23 11:09:49;;;;;;;;;;;;;;;;;;5051583;28;19927;-52
2022/05/23 11:12:15;;;;;;;;;;;;;;;;;;5049824;28;19913;-50
2022/05/23 11:14:42;;;;;;;;;;;;;;;;;;5050101;28;19963;-51
2022/05/23 11:17:08;;;;;;;;;;;;;;;;;;5050968;28;19915;-55
2022/05/23 11:19:35;;;;;;;;;;;;;;;;;;5050829;28;19908;-44
2022/05/23 11:22:02;;;;;;;;;;;;;;;;;;5050924;28;20374;-51
2022/05/23 11:24:28;;;;;;;;;;;;;;;;;;5048579;28;19962;-44
2022/05/23 11:26:55;;;;;;;;;;;;;;;;;;5050671;28;19912;-50
2022/05/23 11:34:51;;;;;;;;;;;;;;;;;;5051171;28;19935;-43
2022/05/23 11:39:50;;;;;;;;;;;;;;;;;;5051120;28;19909;-45
2022/05/23 11:42:16;;;;;;;;;;;;;;;;;;5048983;28;19909;-52
2022/05/23 11:44:43;;;;;;;;;;;;;;;;;;5051093;28;19912;-50
2022/05/23 11:47:10;;;;;;;;;;;;;;;;;;5050114;28;19916;-53
2022/05/23 11:49:36;;;;;;;;;;;;;;;;;;5049380;28;19920;-50
2022/05/23 11:52:04;;;;;;;;;;;;;;;;;;5050950;28;19913;-49
2022/05/23 11:54:32;;;;;;;;;;;;;;;;;;5051670;28;19934;-46
2022/05/23 11:56:59;;;;;;;;;;;;;;;;;;5050452;28;19909;-55
2022/05/23 11:59:25;;;;;;;;;;;;;;;;;;5050829;28;20542;-48
2022/05/23 12:01:51;;;;;;;;;;;;;;;;;;5050982;28;20248;-53
2022/05/23 12:04:18;;;;;;;;;;;;;;;;;;5049918;28;19916;-49
2022/05/23 12:06:45;;;;;;;;;;;;;;;;;;5048910;28;19917;-47
2022/05/23 12:09:11;;;;;;;;;;;;;;;;;;5050521;28;19920;-47
2022/05/23 12:11:38;;;;;;;;;;;;;;;;;;5050542;28;20368;-47
2022/05/23 12:14:04;;;;;;;;;;;;;;;;;;5048559;28;19920;-42
2022/05/23 12:16:31;;;;;;;;;;;;;;;;;;5048440;28;19967;-50
2022/05/23 12:18:57;;;;;;;;;;;;;;;;;;5050009;28;19961;-56
2022/05/23 12:21:24;;;;;;;;;;;;;;;;;;5050098;28;19913;-57
2022/05/23 12:23:50;;;;;;;;;;;;;;;;;;5049571;28;19909;-51
2022/05/23 12:26:17;;;;;;;;;;;;;;;;;;5045949;28;20244;-49
2022/05/23 12:28:43;;;;;;;;;;;;;;;;;;5050702;28;19917;-44
2022/05/23 12:31:11;;;;;;;;;;;;;;;;;;5051377;28;19994;-49
2022/05/23 12:33:38;;;;;;;;;;;;;;;;;;5050107;28;19913;-48
2022/05/23 12:36:05;;;;;;;;;;;;;;;;;;5047395;28;19909;-52
2022/05/23 12:38:32;;;;;;;;;;;;;;;;;;5050387;28;19917;-51
2022/05/23 12:40:58;;;;;;;;;;;;;;;;;;5049333;28;19909;-48
2022/05/23 12:43:25;;;;;;;;;;;;;;;;;;5050292;28;20376;-52
2022/05/23 12:45:51;;;;;;;;;;;;;;;;;;5047574;28;20338;-49
2022/05/23 12:48:18;;;;;;;;;;;;;;;;;;5050082;28;19915;-38
2022/05/23 12:50:44;;;;;;;;;;;;;;;;;;5049074;28;19924;-48
2022/05/23 12:53:10;;;;;;;;;;;;;;;;;;5049975;28;19909;-45
2022/05/23 12:55:37;;;;;;;;;;;;;;;;;;5047447;28;19948;-55
2022/05/23 12:58:04;;;;;;;;;;;;;;;;;;5051661;28;20278;-52
2022/05/23 13:00:30;;;;;;;;;;;;;;;;;;5050997;28;20397;-42
2022/05/23 13:02:57;;;;;;;;;;;;;;;;;;5047423;28;20283;-44
2022/05/23 13:05:24;;;;;;;;;;;;;;;;;;5052201;28;20296;-40
2022/05/23 13:07:50;;;;;;;;;;;;;;;;;;5054967;28;19909;-49
2022/05/23 13:10:17;;;;;;;;;;;;;;;;;;5056186;28;19917;-47
2022/05/23 13:12:44;;;;;;;;;;;;;;;;;;5056077;28;19913;-39
2022/05/23 13:15:10;;;;;;;;;;;;;;;;;;5056355;28;19927;-49
2022/05/23 13:17:37;;;;;;;;;;;;;;;;;;5055750;28;19908;-43
2022/05/23 13:22:48;;;;;;;;;;;;;;;;;;5056081;28;20382;-50
2022/05/23 13:25:14;;;;;;;;;;;;;;;;;;5056174;28;20283;-43
2022/05/23 13:27:41;;;;;;;;;;;;;;;;;;5055884;28;19909;-52
2022/05/23 13:30:07;;;;;;;;;;;;;;;;;;5055684;28;20378;-54
2022/05/23 13:32:34;;;;;;;;;;;;;;;;;;5055587;28;20463;-45
2022/05/23 13:35:00;;;;;;;;;;;;;;;;;;5055987;28;19909;-50
2022/05/23 13:37:27;;;;;;;;;;;;;;;;;;5055597;28;19952;-47
2022/05/23 13:39:53;;;;;;;;;;;;;;;;;;5055765;28;20362;-51
2022/05/23 13:42:20;;;;;;;;;;;;;;;;;;5055905;28;20364;-50
2022/05/23 13:44:47;;;;;;;;;;;;;;;;;;5054881;28;20398;-47
2022/05/23 13:47:13;;;;;;;;;;;;;;;;;;5053644;28;20325;-55
2022/05/23 13:49:40;;;;;;;;;;;;;;;;;;5055338;28;20331;-44
2022/05/23 13:52:06;;;;;;;;;;;;;;;;;;5055535;28;20268;-54
2022/05/23 13:54:35;;;;;;;;;;;;;;;;;;5055698;28;20029;-51
2022/05/23 13:57:02;;;;;;;;;;;;;;;;;;5055874;28;19996;-50
2022/05/23 13:59:29;;;;;;;;;;;;;;;;;;5055073;28;19909;-49
2022/05/23 14:01:55;;;;;;;;;;;;;;;;;;5055588;28;19934;-51
2022/05/23 14:04:22;;;;;;;;;;;;;;;;;;5055645;28;19922;-52
2022/05/23 14:06:48;;;;;;;;;;;;;;;;;;5055134;28;19913;-46
2022/05/23 14:09:15;;;;;;;;;;;;;;;;;;5055478;28;19916;-51
2022/05/23 14:11:41;;;;;;;;;;;;;;;;;;5055244;28;19917;-44
2022/05/23 14:14:08;;;;;;;;;;;;;;;;;;5055077;28;20303;-47
2022/05/23 14:16:34;;;;;;;;;;;;;;;;;;5055123;28;19978;-40
2022/05/23 14:19:01;;;;;;;;;;;;;;;;;;5054856;28;19936;-46
2022/05/23 14:21:27;;;;;;;;;;;;;;;;;;5055074;28;19909;-48
2022/05/23 14:23:54;;;;;;;;;;;;;;;;;;5055295;28;19913;-44
2022/05/23 14:26:21;;;;;;;;;;;;;;;;;;5055240;28;20255;-50
2022/05/23 14:28:47;;;;;;;;;;;;;;;;;;5054590;28;20359;-48
2022/05/23 14:31:13;;;;;;;;;;;;;;;;;;5054792;28;20417;-50
2022/05/23 14:33:40;;;;;;;;;;;;;;;;;;5054917;28;20318;-45
2022/05/23 14:36:07;;;;;;;;;;;;;;;;;;5054981;28;19912;-53
2022/05/23 14:38:34;;;;;;;;;;;;;;;;;;5054610;28;20229;-49
2022/05/23 14:41:00;;;;;;;;;;;;;;;;;;5054710;28;19916;-43
2022/05/23 14:43:27;;;;;;;;;;;;;;;;;;5054892;28;19909;-47
2022/05/23 14:45:53;;;;;;;;;;;;;;;;;;5054819;28;19919;-51
2022/05/23 14:48:20;;;;;;;;;;;;;;;;;;5054577;28;19951;-47
2022/05/23 14:50:47;;;;;;;;;;;;;;;;;;5054176;28;19916;-44
2022/05/23 14:55:58;;;;;;;;;;;;;;;;;;5054674;28;19916;-52
2022/05/23 15:01:29;;;;;;;;;;;;;;;;;;5052096;28;19909;-54
2022/05/23 15:03:55;;;;;;;;;;;;;;;;;;5052387;28;19909;-53
2022/05/23 15:06:22;;;;;;;;;;;;;;;;;;5053071;28;19909;-52
2022/05/23 15:08:48;;;;;;;;;;;;;;;;;;5054169;28;19909;-54
2022/05/23 15:11:15;;;;;;;;;;;;;;;;;;5054121;28;19917;-51
2022/05/23 15:13:42;;;;;;;;;;;;;;;;;;5053991;28;19921;-57
2022/05/23 15:16:09;;;;;;;;;;;;;;;;;;5054420;28;19912;-51
2022/05/23 15:18:35;;;;;;;;;;;;;;;;;;5053951;28;19909;-56
2022/05/23 15:21:03;;;;;;;;;;;;;;;;;;5054391;28;19966;-51
2022/05/23 15:23:30;;;;;;;;;;;;;;;;;;5054015;28;20356;-46
2022/05/23 15:25:56;;;;;;;;;;;;;;;;;;5053841;28;20326;-47
2022/05/23 15:28:23;;;;;;;;;;;;;;;;;;5054005;28;19909;-51
2022/05/23 15:30:50;;;;;;;;;;;;;;;;;;5052679;28;19916;-51
2022/05/23 15:33:16;;;;;;;;;;;;;;;;;;5052500;28;19948;-48
2022/05/23 15:35:43;;;;;;;;;;;;;;;;;;5053908;28;20339;-56
2022/05/23 15:38:11;;;;;;;;;;;;;;;;;;5053837;28;19909;-52
2022/05/23 15:40:37;;;;;;;;;;;;;;;;;;5053464;28;19919;-52
2022/05/23 15:43:04;;;;;;;;;;;;;;;;;;5053467;28;19919;-48
2022/05/23 15:45:30;;;;;;;;;;;;;;;;;;5053764;28;19948;-48
2022/05/23 15:47:58;;;;;;;;;;;;;;;;;;5053849;28;19909;-46
2022/05/23 15:50:24;;;;;;;;;;;;;;;;;;5053555;28;20321;-54
2022/05/23 15:52:51;;;;;;;;;;;;;;;;;;5052872;28;20026;-54
2022/05/23 15:55:17;;;;;;;;;;;;;;;;;;5053864;28;19961;-53
2022/05/23 15:57:44;;;;;;;;;;;;;;;;;;5063177;28;19916;-56
2022/05/23 16:00:10;;;;;;;;;;;;;;;;;;5071631;28;19909;-52
2022/05/23 16:02:37;;;;;;;;;;;;;;;;;;5071394;28;20282;-57
2022/05/23 16:05:03;;;;;;;;;;;;;;;;;;5072936;28;19913;-49
2022/05/23 16:07:30;;;;;;;;;;;;;;;;;;5073299;28;19914;-56
2022/05/23 16:09:56;;;;;;;;;;;;;;;;;;5073062;28;19935;-53
2022/05/23 16:12:23;;;;;;;;;;;;;;;;;;5072687;28;19912;-45
2022/05/23 16:14:49;;;;;;;;;;;;;;;;;;5072857;28;19916;-58
2022/05/23 16:17:16;;;;;;;;;;;;;;;;;;5073255;28;19988;-50
2022/05/23 16:19:43;;;;;;;;;;;;;;;;;;5073166;28;20000;-50
2022/05/23 16:22:10;;;;;;;;;;;;;;;;;;5072958;28;19908;-51
2022/05/23 16:24:36;;;;;;;;;;;;;;;;;;5072538;28;19908;-49
2022/05/23 16:27:03;;;;;;;;;;;;;;;;;;5072922;28;19931;-51
2022/05/23 16:29:30;;;;;;;;;;;;;;;;;;5073036;28;19916;-56
2022/05/23 16:31:56;;;;;;;;;;;;;;;;;;5072709;28;19917;-50
2022/05/23 16:37:07;;;;;;;;;;;;;;;;;;5072901;28;19943;-46
2022/05/23 16:39:33;;;;;;;;;;;;;;;;;;5072726;28;19913;-48
2022/05/23 16:42:00;;;;;;;;;;;;;;;;;;5072675;28;19909;-48
2022/05/23 16:44:27;;;;;;;;;;;;;;;;;;5072592;28;19975;-46
2022/05/23 16:46:53;;;;;;;;;;;;;;;;;;5072453;28;19912;-53
2022/05/23 16:49:19;;;;;;;;;;;;;;;;;;5072581;28;19908;-47
2022/05/23 16:51:46;;;;;;;;;;;;;;;;;;5072698;28;19917;-53
2022/05/23 16:54:14;;;;;;;;;;;;;;;;;;5072392;28;19927;-48
2022/05/23 16:56:41;;;;;;;;;;;;;;;;;;5072255;28;20356;-46
2022/05/23 16:59:07;;;;;;;;;;;;;;;;;;5072433;28;20316;-42
2022/05/23 17:01:34;;;;;;;;;;;;;;;;;;5072504;28;19912;-41
2022/05/23 17:04:00;;;;;;;;;;;;;;;;;;5072664;28;19909;-52
2022/05/23 17:06:27;;;;;;;;;;;;;;;;;;5072592;28;20267;-48
2022/05/23 17:08:54;;;;;;;;;;;;;;;;;;5072358;28;19948;-45
2022/05/23 17:11:20;;;;;;;;;;;;;;;;;;5072518;28;19924;-47
2022/05/23 17:13:47;;;;;;;;;;;;;;;;;;5072048;28;19920;-50
2022/05/23 17:16:13;;;;;;;;;;;;;;;;;;5071138;28;19924;-44
2022/05/23 17:18:40;;;;;;;;;;;;;;;;;;5072618;28;20021;-45
2022/05/23 17:21:06;;;;;;;;;;;;;;;;;;5072680;28;19909;-40
2022/05/23 17:23:33;;;;;;;;;;;;;;;;;;5073052;28;19915;-53
2022/05/23 17:25:59;;;;;;;;;;;;;;;;;;5072793;28;20047;-41
2022/05/23 17:28:26;;;;;;;;;;;;;;;;;;5072667;28;19920;-48
2022/05/23 17:30:52;;;;;;;;;;;;;;;;;;5071509;28;19928;-47
2022/05/23 17:33:18;;;;;;;;;;;;;;;;;;5071499;28;20050;-51
2022/05/23 17:35:45;;;;;;;;;;;;;;;;;;5072944;28;19905;-50
2022/05/23 17:38:11;;;;;;;;;;;;;;;;;;5072792;28;19913;-50
2022/05/23 17:40:38;;;;;;;;;;;;;;;;;;5072564;28;20351;-49
2022/05/23 17:43:04;;;;;;;;;;;;;;;;;;5072689;28;20313;-44
2022/05/23 17:45:31;;;;;;;;;;;;;;;;;;5072715;28;19999;-39
2022/05/23 17:47:57;;;;;;;;;;;;;;;;;;5072636;28;19909;-46